createdAt,value
2019-04-07T00:01:21.252Z,43.83
2019-04-07T00:03:50.628Z,45.73
2019-04-07T00:06:20.298Z,48.37
2019-04-07T00:08:49.787Z,44.83
2019-04-07T00:11:19.599Z,48.60
2019-04-07T00:13:49.889Z,48.13
2019-04-07T00:16:19.324Z,49.73
2019-04-07T00:18:48.735Z,45.60
2019-04-07T00:21:19.240Z,53.90
2019-04-07T00:23:49.737Z,50.03
2019-04-07T00:26:19.164Z,48.07
2019-04-07T00:28:48.613Z,42.33
2019-04-07T00:31:18.061Z,45.30
2019-04-07T00:33:47.647Z,49.87
2019-04-07T00:36:17.014Z,48.63
2019-04-07T00:38:48.285Z,58.43
2019-04-07T00:41:18.357Z,52.33
2019-04-07T00:43:47.745Z,50.07
2019-04-07T00:46:17.119Z,52.30
2019-04-07T00:48:46.464Z,49.10
2019-04-07T00:51:15.883Z,46.17
2019-04-07T00:53:45.436Z,49.63
2019-04-07T00:56:15.015Z,51.83
2019-04-07T00:58:44.541Z,46.13
2019-04-07T01:01:17.178Z,48.83
2019-04-07T01:03:46.528Z,48.50
2019-04-07T01:06:16.549Z,48.83
2019-04-07T01:08:46.364Z,46.90
2019-04-07T01:11:15.921Z,48.10
2019-04-07T01:13:45.281Z,48.63
2019-04-07T01:16:14.678Z,49.27
2019-04-07T01:18:44.041Z,51.77
2019-04-07T01:21:13.828Z,50.63
2019-04-07T01:23:43.637Z,49.70
2019-04-07T01:26:13.804Z,58.17
2019-04-07T01:28:43.877Z,52.63
2019-04-07T01:31:13.492Z,48.70
2019-04-07T01:33:43.139Z,49.70
2019-04-07T01:36:12.736Z,50.17
2019-04-07T01:38:42.208Z,50.57
2019-04-07T01:41:27.505Z,59.17
2019-04-07T01:44:05.228Z,47.40
2019-04-07T01:47:09.215Z,48.97
2019-04-07T01:49:48.622Z,48.97
2019-04-07T01:52:39.688Z,47.03
2019-04-07T01:55:37.372Z,50.57
2019-04-07T01:58:26.346Z,54.37
2019-04-07T02:01:13.374Z,51.03
2019-04-07T02:04:00.817Z,55.23
2019-04-07T02:06:36.482Z,53.80
2019-04-07T02:09:36.887Z,53.73
2019-04-07T02:12:25.918Z,59.43
2019-04-07T02:15:13.894Z,58.13
2019-04-07T02:17:54.975Z,57.07
2019-04-07T02:21:19.685Z,62.37
2019-04-07T02:24:06.724Z,55.97
2019-04-07T02:26:44.384Z,58.87
2019-04-07T02:29:35.894Z,64.93
2019-04-07T02:32:18.612Z,64.63
2019-04-07T02:35:12.698Z,59.73
2019-04-07T02:37:46.813Z,57.47
2019-04-07T02:40:36.737Z,57.17
2019-04-07T02:43:38.191Z,54.87
2019-04-07T02:46:16.940Z,55.67
2019-04-07T02:48:52.110Z,53.10
2019-04-07T02:51:29.714Z,51.87
2019-04-07T02:54:18.145Z,58.90
2019-04-07T02:56:54.276Z,54.87
2019-04-07T02:59:43.466Z,51.97
2019-04-07T03:02:33.316Z,53.87
2019-04-07T03:05:12.022Z,52.10
2019-04-07T03:08:01.328Z,50.83
2019-04-07T03:10:44.190Z,51.57
2019-04-07T03:13:28.238Z,53.40
2019-04-07T03:16:07.833Z,51.10
2019-04-07T03:18:42.626Z,55.83
2019-04-07T03:21:37.100Z,61.27
2019-04-07T03:24:17.136Z,59.43
2019-04-07T03:27:04.116Z,57.60
2019-04-07T03:29:49.430Z,60.20
2019-04-07T03:32:33.670Z,60.40
2019-04-07T03:35:22.936Z,62.17
2019-04-07T03:38:02.102Z,60.70
2019-04-07T03:40:49.797Z,61.70
2019-04-07T03:43:42.735Z,62.60
2019-04-07T03:46:28.386Z,62.37
2019-04-07T03:49:07.349Z,63.70
2019-04-07T03:51:56.043Z,58.43
2019-04-07T03:54:45.140Z,61.97
2019-04-07T03:57:24.122Z,72.33
2019-04-07T04:00:23.788Z,70.37
2019-04-07T04:03:02.698Z,71.43
2019-04-07T04:05:52.007Z,67.50
2019-04-07T04:08:28.911Z,64.70
2019-04-07T04:11:11.660Z,64.10
2019-04-07T04:13:58.908Z,69.13
2019-04-07T04:16:34.077Z,69.50
2019-04-07T04:19:05.006Z,76.70
2019-04-07T04:21:34.474Z,81.73
2019-04-07T04:24:04.130Z,71.50
2019-04-07T04:26:34.361Z,72.70
2019-04-07T04:29:08.359Z,75.20
2019-04-07T04:31:37.824Z,78.50
2019-04-07T04:34:07.260Z,70.00
2019-04-07T04:36:36.599Z,82.10
2019-04-07T04:39:08.252Z,83.40
2019-04-07T04:41:37.726Z,78.07
2019-04-07T04:44:08.620Z,80.13
2019-04-07T04:46:38.764Z,78.33
2019-04-07T04:49:08.150Z,72.57
2019-04-07T04:51:39.447Z,83.70
2019-04-07T04:54:08.605Z,79.90
2019-04-07T04:56:37.939Z,82.63
2019-04-07T04:59:07.533Z,78.93
2019-04-07T05:01:37.778Z,80.67
2019-04-07T05:04:07.546Z,93.13
2019-04-07T05:06:37.835Z,76.90
2019-04-07T05:09:09.106Z,75.80
2019-04-07T05:11:38.535Z,76.90
2019-04-07T05:14:08.860Z,74.83
2019-04-07T05:16:38.832Z,73.43
2019-04-07T05:19:08.779Z,76.13
2019-04-07T05:21:38.209Z,72.33
2019-04-07T05:24:09.274Z,67.67
2019-04-07T05:26:38.886Z,68.73
2019-04-07T05:29:08.354Z,64.77
2019-04-07T05:31:38.534Z,58.23
2019-04-07T05:34:08.111Z,58.87
2019-04-07T05:36:37.945Z,62.10
2019-04-07T05:39:08.656Z,59.70
2019-04-07T05:41:38.451Z,50.47
2019-04-07T05:44:13.940Z,51.23
2019-04-07T05:46:43.494Z,48.40
2019-04-07T05:49:18.690Z,47.50
2019-04-07T05:51:48.968Z,47.63
2019-04-07T05:54:19.801Z,50.53
2019-04-07T05:56:50.245Z,42.67
2019-04-07T05:59:22.107Z,41.80
2019-04-07T06:01:58.464Z,38.73
2019-04-07T06:04:24.912Z,38.90
2019-04-07T06:06:56.028Z,39.13
2019-04-07T06:09:26.307Z,36.83
2019-04-07T06:11:56.046Z,36.90
2019-04-07T06:14:25.972Z,35.03
2019-04-07T06:16:55.875Z,35.47
2019-04-07T06:19:25.988Z,37.67
2019-04-07T06:21:55.932Z,37.87
2019-04-07T06:24:26.863Z,36.10
2019-04-07T06:26:56.582Z,35.03
2019-04-07T06:29:26.520Z,32.23
2019-04-07T06:31:56.239Z,29.43
2019-04-07T06:34:25.804Z,32.80
2019-04-07T06:36:56.520Z,29.77
2019-04-07T06:39:26.665Z,28.03
2019-04-07T06:41:58.961Z,30.80
2019-04-07T06:44:27.781Z,30.93
2019-04-07T06:47:25.957Z,31.97
2019-04-07T06:50:15.427Z,32.53
2019-04-07T06:56:14.324Z,30.93
2019-04-07T06:59:15.573Z,33.17
2019-04-07T07:02:15.881Z,30.13
2019-04-07T07:05:15.696Z,33.00
2019-04-07T07:08:19.354Z,31.80
2019-04-07T07:11:28.597Z,34.13
2019-04-07T07:14:33.463Z,31.07
2019-04-07T07:17:23.501Z,31.27
2019-04-07T07:20:27.719Z,31.73
2019-04-07T07:23:18.890Z,32.77
2019-04-07T07:26:02.922Z,31.20
2019-04-07T07:28:43.880Z,31.40
2019-04-07T07:31:26.340Z,30.27
2019-04-07T07:34:10.158Z,31.13
2019-04-07T07:36:53.440Z,32.23
2019-04-07T07:39:32.752Z,31.07
2019-04-07T07:42:13.784Z,31.00
2019-04-07T07:44:54.820Z,32.87
2019-04-07T07:47:36.329Z,30.60
2019-04-07T07:50:17.843Z,31.63
2019-04-07T07:52:58.603Z,29.90
2019-04-07T07:55:40.172Z,30.85
2019-04-07T07:58:21.815Z,28.27
2019-04-07T08:01:03.335Z,29.10
2019-04-07T08:03:44.611Z,28.47
2019-04-07T08:06:26.270Z,28.92
2019-04-07T08:09:13.782Z,29.55
2019-04-07T08:11:50.229Z,28.02
2019-04-07T08:14:32.513Z,27.22
2019-04-07T08:17:13.718Z,25.82
2019-04-07T08:19:54.701Z,26.77
2019-04-07T08:22:41.264Z,28.10
2019-04-07T08:25:25.037Z,28.55
2019-04-07T08:31:08.107Z,27.55
2019-04-07T08:37:04.775Z,29.27
2019-04-07T08:43:02.528Z,27.85
2019-04-07T08:45:52.495Z,25.10
2019-04-07T08:48:41.972Z,23.22
2019-04-07T08:51:32.350Z,24.20
2019-04-07T08:54:20.561Z,23.80
2019-04-07T09:00:15.096Z,23.47
2019-04-07T09:03:01.833Z,23.25
2019-04-07T09:05:36.630Z,20.02
2019-04-07T09:08:18.049Z,19.95
2019-04-07T09:11:03.575Z,21.35
2019-04-07T09:13:51.007Z,19.90
2019-04-07T09:16:52.883Z,19.07
2019-04-07T09:19:50.853Z,19.40
2019-04-07T09:22:54.731Z,18.27
2019-04-07T09:25:43.709Z,18.02
2019-04-07T09:28:45.425Z,17.62
2019-04-07T09:31:44.876Z,16.57
2019-04-07T09:37:53.346Z,17.10
2019-04-07T09:40:40.263Z,15.50
2019-04-07T09:43:41.073Z,4.42
2019-04-07T09:49:56.294Z,4.65
2019-04-07T09:52:52.202Z,3.90
2019-04-07T09:55:55.614Z,4.50
2019-04-07T09:59:00.303Z,4.87
2019-04-07T10:05:06.558Z,4.55
2019-04-07T10:08:07.306Z,5.20
2019-04-07T10:10:55.984Z,7.78
2019-04-07T10:14:04.581Z,6.03
2019-04-07T10:17:14.338Z,6.43
2019-04-07T10:20:23.451Z,6.20
2019-04-07T10:23:32.158Z,5.70
2019-04-07T10:26:39.548Z,6.08
2019-04-07T10:29:34.158Z,6.20
2019-04-07T10:32:41.787Z,6.10
2019-04-07T10:35:49.577Z,6.43
2019-04-07T10:38:56.924Z,6.63
2019-04-07T10:42:04.677Z,5.80
2019-04-07T10:45:13.273Z,6.30
2019-04-07T10:48:20.572Z,6.03
2019-04-07T10:51:28.493Z,6.60
2019-04-07T10:54:37.098Z,5.73
2019-04-07T10:57:36.867Z,5.73
2019-04-07T11:00:37.044Z,6.03
2019-04-07T11:03:38.386Z,6.33
2019-04-07T11:06:38.367Z,5.13
2019-04-07T11:09:38.491Z,8.30
2019-04-07T11:12:30.995Z,5.73
2019-04-07T11:15:34.171Z,5.30
2019-04-07T11:18:34.662Z,5.20
2019-04-07T11:21:36.008Z,7.47
2019-04-07T11:27:36.625Z,6.70
2019-04-07T11:30:38.556Z,5.80
2019-04-07T11:33:38.199Z,5.67
2019-04-07T11:39:36.279Z,7.10
2019-04-07T11:42:25.126Z,6.63
2019-04-07T11:45:25.807Z,6.10
2019-04-07T11:51:32.569Z,5.87
2019-04-07T11:54:35.580Z,6.53
2019-04-07T11:57:35.448Z,6.53
2019-04-07T12:00:25.896Z,6.30
2019-04-07T12:03:27.940Z,5.93
2019-04-07T12:06:24.166Z,6.20
2019-04-07T12:09:23.856Z,7.07
2019-04-07T12:12:26.694Z,6.50
2019-04-07T12:15:28.880Z,7.27
2019-04-07T12:18:29.742Z,8.27
2019-04-07T12:21:21.887Z,7.13
2019-04-07T12:27:30.215Z,6.60
2019-04-07T12:30:31.656Z,12.77
2019-04-07T12:33:31.353Z,7.87
2019-04-07T12:36:32.174Z,7.17
2019-04-07T12:39:35.050Z,7.27
2019-04-07T12:42:35.705Z,6.93
2019-04-07T12:45:37.022Z,6.80
2019-04-07T12:48:40.348Z,7.70
2019-04-07T12:54:31.085Z,8.23
2019-04-07T12:57:28.836Z,7.37
2019-04-07T13:00:16.779Z,5.77
2019-04-07T13:03:04.529Z,6.53
2019-04-07T13:05:52.954Z,7.63
2019-04-07T13:08:40.387Z,6.00
2019-04-07T13:11:35.366Z,7.43
2019-04-07T13:14:30.992Z,5.83
2019-04-07T13:17:38.092Z,6.77
2019-04-07T13:20:24.339Z,6.50
2019-04-07T13:23:06.767Z,7.17
2019-04-07T13:26:04.135Z,7.43
2019-04-07T13:28:55.442Z,7.20
2019-04-07T13:31:36.781Z,7.90
2019-04-07T13:34:16.623Z,7.70
2019-04-07T13:37:04.585Z,6.07
2019-04-07T13:39:56.701Z,6.43
2019-04-07T13:42:42.834Z,6.70
2019-04-07T13:45:21.638Z,7.27
2019-04-07T13:48:09.058Z,7.60
2019-04-07T13:51:05.389Z,6.53
2019-04-07T13:53:47.603Z,7.93
2019-04-07T13:56:49.798Z,6.70
2019-04-07T13:59:42.702Z,7.37
2019-04-07T14:02:42.169Z,7.40
2019-04-07T14:05:41.093Z,7.03
2019-04-07T14:08:29.927Z,27.87
2019-04-07T14:12:04.783Z,23.90
2019-04-07T14:14:49.453Z,7.00
2019-04-07T14:17:47.026Z,7.60
2019-04-07T14:20:54.091Z,7.60
2019-04-07T14:23:42.252Z,6.93
2019-04-07T14:26:30.173Z,6.70
2019-04-07T14:29:17.456Z,6.87
2019-04-07T14:32:20.957Z,7.57
2019-04-07T14:35:18.438Z,7.87
2019-04-07T14:38:12.588Z,6.40
2019-04-07T14:41:01.921Z,6.60
2019-04-07T14:44:06.969Z,7.73
2019-04-07T14:47:04.694Z,7.80
2019-04-07T14:50:09.301Z,7.83
2019-04-07T14:52:51.788Z,7.73
2019-04-07T14:55:48.610Z,10.47
2019-04-07T14:58:55.185Z,8.87
2019-04-07T15:01:44.781Z,8.70
2019-04-07T15:04:14.579Z,10.17
2019-04-07T15:06:45.972Z,7.33
2019-04-07T15:09:24.030Z,8.20
2019-04-07T15:12:01.555Z,8.83
2019-04-07T15:14:32.997Z,8.87
2019-04-07T15:17:02.535Z,7.63
2019-04-07T15:19:31.954Z,8.30
2019-04-07T15:22:03.047Z,9.00
2019-04-07T15:24:35.778Z,8.70
2019-04-07T15:27:05.821Z,7.63
2019-04-07T15:29:38.631Z,9.13
2019-04-07T15:32:07.253Z,7.67
2019-04-07T15:34:41.439Z,8.23
2019-04-07T15:37:09.989Z,8.97
2019-04-07T15:39:39.670Z,8.63
2019-04-07T15:42:10.289Z,11.00
2019-04-07T15:44:41.602Z,8.57
2019-04-07T15:47:11.404Z,9.80
2019-04-07T15:49:57.778Z,10.47
2019-04-07T15:52:27.484Z,10.23
2019-04-07T15:54:57.336Z,8.70
2019-04-07T15:57:26.846Z,9.90
2019-04-07T15:59:59.871Z,12.70
2019-04-07T16:02:27.546Z,9.27
2019-04-07T16:05:00.356Z,9.23
2019-04-07T16:07:28.391Z,8.70
2019-04-07T16:09:58.172Z,8.43
2019-04-07T16:12:29.780Z,9.10
2019-04-07T16:14:59.962Z,9.33
2019-04-07T16:17:31.990Z,8.70
2019-04-07T16:20:00.620Z,9.13
2019-04-07T16:22:30.913Z,9.20
2019-04-07T16:25:00.680Z,10.83
2019-04-07T16:27:30.450Z,9.47
2019-04-07T16:30:01.277Z,10.47
2019-04-07T16:32:31.450Z,9.97
2019-04-07T16:35:02.693Z,9.03
2019-04-07T16:37:32.112Z,11.57
2019-04-07T16:40:06.278Z,10.07
2019-04-07T16:42:33.117Z,12.77
2019-04-07T16:45:02.647Z,12.10
2019-04-07T16:47:34.705Z,10.43
2019-04-07T16:50:03.198Z,10.27
2019-04-07T16:52:33.974Z,10.77
2019-04-07T16:55:04.268Z,12.03
2019-04-07T16:57:33.829Z,10.90
2019-04-07T17:00:03.798Z,11.27
2019-04-07T17:02:33.846Z,10.33
2019-04-07T17:05:03.527Z,10.87
2019-04-07T17:07:33.941Z,10.20
2019-04-07T17:10:03.803Z,10.70
2019-04-07T17:12:34.130Z,11.97
2019-04-07T17:15:05.759Z,12.03
2019-04-07T17:17:35.761Z,11.50
2019-04-07T17:20:05.828Z,10.60
2019-04-07T17:22:35.883Z,13.70
2019-04-07T17:25:09.270Z,12.87
2019-04-07T17:27:36.869Z,11.50
2019-04-07T17:30:06.977Z,11.83
2019-04-07T17:32:37.255Z,11.33
2019-04-07T17:35:12.586Z,11.50
2019-04-07T17:37:40.965Z,11.27
2019-04-07T17:40:18.600Z,12.70
2019-04-07T17:42:50.802Z,11.33
2019-04-07T17:45:53.618Z,11.20
2019-04-07T17:48:57.206Z,11.43
2019-04-07T17:51:40.316Z,10.50
2019-04-07T17:54:43.918Z,11.70
2019-04-07T17:57:23.728Z,12.40
2019-04-07T18:00:11.698Z,12.07
2019-04-07T18:03:10.861Z,11.73
2019-04-07T18:06:00.048Z,11.67
2019-04-07T18:08:45.928Z,12.17
2019-04-07T18:11:32.913Z,11.93
2019-04-07T18:14:20.928Z,12.73
2019-04-07T18:17:09.796Z,14.50
2019-04-07T18:19:51.640Z,12.33
2019-04-07T18:22:32.192Z,13.97
2019-04-07T18:25:27.374Z,12.63
2019-04-07T18:28:06.671Z,12.93
2019-04-07T18:30:55.204Z,14.10
2019-04-07T18:34:03.716Z,12.27
2019-04-07T18:37:09.900Z,13.47
2019-04-07T18:40:00.733Z,14.83
2019-04-07T18:42:42.267Z,17.90
2019-04-07T18:45:36.365Z,13.80
2019-04-07T18:48:33.922Z,14.87
2019-04-07T18:51:28.273Z,14.60
2019-04-07T18:54:35.657Z,18.83
2019-04-07T18:57:44.766Z,14.57
2019-04-07T19:00:52.196Z,15.17
2019-04-07T19:03:53.511Z,13.63
2019-04-07T19:06:56.547Z,15.33
2019-04-07T19:10:08.404Z,14.33
2019-04-07T19:12:53.707Z,13.57
2019-04-07T19:15:54.202Z,18.00
2019-04-07T19:18:50.732Z,14.63
2019-04-07T19:21:55.174Z,13.67
2019-04-07T19:24:58.170Z,14.33
2019-04-07T19:28:00.855Z,15.03
2019-04-07T19:30:59.349Z,19.00
2019-04-07T19:33:57.897Z,16.40
2019-04-07T19:36:55.931Z,18.37
2019-04-07T19:40:01.499Z,17.13
2019-04-07T19:43:00.457Z,18.87
2019-04-07T19:46:00.618Z,15.50
2019-04-07T19:52:10.630Z,16.87
2019-04-07T19:55:12.007Z,17.77
2019-04-07T19:58:12.737Z,16.97
2019-04-07T20:01:13.269Z,14.03
2019-04-07T20:07:39.953Z,16.20
2019-04-07T20:10:28.206Z,16.63
2019-04-07T20:13:28.809Z,20.10
2019-04-07T20:16:28.352Z,16.90
2019-04-07T20:19:33.872Z,16.00
2019-04-07T20:22:29.130Z,16.40
2019-04-07T20:25:26.767Z,18.17
2019-04-07T20:28:17.530Z,15.33
2019-04-07T20:31:21.911Z,18.93
2019-04-07T20:37:05.051Z,17.87
2019-04-07T20:40:06.342Z,17.27
2019-04-07T20:42:53.573Z,15.80
2019-04-07T20:45:54.806Z,16.27
2019-04-07T20:49:00.416Z,15.80
2019-04-07T20:51:56.438Z,17.40
2019-04-07T20:54:58.251Z,18.13
2019-04-07T20:58:14.456Z,20.30
2019-04-07T21:01:02.667Z,18.90
2019-04-07T21:03:53.057Z,16.83
2019-04-07T21:06:59.242Z,17.83
2019-04-07T21:10:07.350Z,17.40
2019-04-07T21:12:58.318Z,18.77
2019-04-07T21:16:01.533Z,16.97
2019-04-07T21:19:07.704Z,18.57
2019-04-07T21:22:04.412Z,16.50
2019-04-07T21:25:04.039Z,16.33
2019-04-07T21:28:06.079Z,17.60
2019-04-07T21:30:57.852Z,15.80
2019-04-07T21:34:05.264Z,16.97
2019-04-07T21:36:54.310Z,18.00
2019-04-07T21:39:41.758Z,19.43
2019-04-07T21:42:42.978Z,18.77
2019-04-07T21:45:48.189Z,17.57
2019-04-07T21:48:35.396Z,18.10
2019-04-07T21:51:35.313Z,17.00
2019-04-07T21:54:37.902Z,21.07
2019-04-07T21:57:36.757Z,20.60
2019-04-07T22:00:34.969Z,18.07
2019-04-07T22:03:40.933Z,19.87
2019-04-07T22:06:46.613Z,19.20
2019-04-07T22:12:36.212Z,21.73
2019-04-07T22:15:17.282Z,19.60
2019-04-07T22:17:58.347Z,20.70
2019-04-07T22:20:39.200Z,20.43
2019-04-07T22:23:21.507Z,19.73
2019-04-07T22:26:03.128Z,19.70
2019-04-07T22:28:44.978Z,20.50
2019-04-07T22:31:31.328Z,18.50
2019-04-07T22:34:14.493Z,18.20
2019-04-07T22:36:54.232Z,18.30
2019-04-07T22:39:34.970Z,18.90
2019-04-07T22:42:17.127Z,19.60
2019-04-07T22:44:58.224Z,20.00
2019-04-07T22:47:39.967Z,20.93
2019-04-07T22:50:21.256Z,21.00
2019-04-07T22:53:02.553Z,20.83
2019-04-07T22:55:43.450Z,17.93
2019-04-07T22:58:24.881Z,18.80
2019-04-07T23:01:07.589Z,19.40
2019-04-07T23:03:49.631Z,19.30
2019-04-07T23:06:31.065Z,17.77
2019-04-07T23:09:13.378Z,20.47
2019-04-07T23:11:54.507Z,23.30
2019-04-07T23:14:36.108Z,18.03
2019-04-07T23:17:17.626Z,21.33
2019-04-07T23:19:58.926Z,18.83
2019-04-07T23:22:40.300Z,19.13
2019-04-07T23:25:22.897Z,18.47
2019-04-07T23:28:03.393Z,19.30
2019-04-07T23:30:45.080Z,20.03
2019-04-07T23:33:26.444Z,20.40
2019-04-07T23:36:07.104Z,19.73
2019-04-07T23:38:48.405Z,23.27
2019-04-07T23:41:29.827Z,19.47
2019-04-07T23:44:11.017Z,21.43
2019-04-07T23:46:53.019Z,20.50
2019-04-07T23:49:34.266Z,20.90
2019-04-07T23:52:15.516Z,21.90
2019-04-07T23:54:56.633Z,23.23
2019-04-07T23:57:38.166Z,21.93
